Time;durP1;ratioP1;P1;durP2;ratioP2;P2;SDS_P1;SDS_P2;PMS_P1;PMS_P2;Temp;Humidity;BMP_temperature;BMP_pressure;BME280_temperature;BME280_humidity;BME280_pressure;Samples;Min_cycle;Max_cycle;Signal;HPM_P1;HPM_P2
2023/01/23 00:00:26;;;;;;;;;;;2.30;99.90;;;;;;5094400;28;20286;-63
2023/01/23 00:02:51;;;;;;;;;;;2.30;99.90;;;;;;5094627;28;19908;-63
2023/01/23 00:05:17;;;;;;;;;;;2.30;99.90;;;;;;5094594;28;19909;-63
2023/01/23 00:07:43;;;;;;;;;;;2.20;99.90;;;;;;5094605;28;19909;-63
2023/01/23 00:10:08;;;;;;;;;;;2.20;99.90;;;;;;5094489;28;20363;-63
2023/01/23 00:12:34;;;;;;;;;;;2.20;99.90;;;;;;5094546;28;19954;-63
2023/01/23 00:14:59;;;;;;;;;;;2.10;99.90;;;;;;5094414;28;20337;-63
2023/01/23 00:17:26;;;;;;;;;;;2.20;99.90;;;;;;5094649;28;19912;-63
2023/01/23 00:19:52;;;;;;;;;;;2.20;99.90;;;;;;5094608;28;19908;-63
2023/01/23 00:22:18;;;;;;;;;;;2.30;99.90;;;;;;5094497;28;19947;-63
2023/01/23 00:24:43;;;;;;;;;;;2.20;99.90;;;;;;5094285;28;20373;-63
2023/01/23 00:27:08;;;;;;;;;;;2.20;99.90;;;;;;5094211;28;20366;-63
2023/01/23 00:29:34;;;;;;;;;;;2.20;99.90;;;;;;5094155;28;19908;-63
2023/01/23 00:31:59;;;;;;;;;;;2.20;99.90;;;;;;5094142;28;19920;-63
2023/01/23 00:34:25;;;;;;;;;;;2.20;99.90;;;;;;5094079;28;19908;-63
2023/01/23 00:36:50;;;;;;;;;;;2.20;99.90;;;;;;5075792;28;19908;-63
2023/01/23 00:39:17;;;;;;;;;;;2.20;99.90;;;;;;5094294;28;19915;-63
2023/01/23 00:41:43;;;;;;;;;;;2.20;99.90;;;;;;5094182;28;19919;-63
2023/01/23 00:44:09;;;;;;;;;;;2.20;99.90;;;;;;5093962;28;20297;-63
2023/01/23 00:46:34;;;;;;;;;;;2.20;99.90;;;;;;5093897;28;19915;-63
2023/01/23 00:49:00;;;;;;;;;;;2.20;99.90;;;;;;5094172;28;20002;-63
2023/01/23 00:51:25;;;;;;;;;;;2.10;99.90;;;;;;5093877;28;20381;-63
2023/01/23 00:53:51;;;;;;;;;;;2.10;99.90;;;;;;5075793;28;20289;-63
2023/01/23 00:56:17;;;;;;;;;;;2.10;99.90;;;;;;5093656;28;19908;-63
2023/01/23 00:58:42;;;;;;;;;;;2.20;99.90;;;;;;5094052;28;20381;-63
2023/01/23 01:01:08;;;;;;;;;;;2.20;99.90;;;;;;5093511;28;19971;-63
2023/01/23 01:03:34;;;;;;;;;;;2.20;99.90;;;;;;5093736;28;19981;-63
2023/01/23 01:06:00;;;;;;;;;;;2.20;99.90;;;;;;5093974;28;19940;-63
2023/01/23 01:08:25;;;;;;;;;;;2.20;99.90;;;;;;5093646;28;19908;-63
2023/01/23 01:10:51;;;;;;;;;;;2.20;99.90;;;;;;5093658;28;19953;-63
2023/01/23 01:13:20;;;;;;;;;;;2.20;99.90;;;;;;5093670;28;19916;-63
2023/01/23 01:15:47;;;;;;;;;;;2.20;99.90;;;;;;5093910;28;19908;-63
2023/01/23 01:18:12;;;;;;;;;;;2.20;99.90;;;;;;5093522;28;19991;-63
2023/01/23 01:20:39;;;;;;;;;;;2.20;99.90;;;;;;5093741;28;20003;-63
2023/01/23 01:23:05;;;;;;;;;;;2.20;99.90;;;;;;5093539;28;19912;-63
2023/01/23 01:25:30;;;;;;;;;;;2.20;99.90;;;;;;5075872;28;19908;-63
2023/01/23 01:27:55;;;;;;;;;;;2.20;99.90;;;;;;5093504;28;19908;-63
2023/01/23 01:30:21;;;;;;;;;;;2.20;99.90;;;;;;5093763;28;20297;-63
2023/01/23 01:32:46;;;;;;;;;;;2.10;99.90;;;;;;5093517;28;19908;-63
2023/01/23 01:35:12;;;;;;;;;;;2.20;99.90;;;;;;5093440;28;19915;-63
2023/01/23 01:37:38;;;;;;;;;;;2.20;99.90;;;;;;5093481;28;19909;-63
2023/01/23 01:40:05;;;;;;;;;;;2.20;99.90;;;;;;5093354;28;19912;-63
2023/01/23 01:42:31;;;;;;;;;;;2.20;99.90;;;;;;5093300;28;19942;-63
2023/01/23 01:44:57;;;;;;;;;;;2.10;99.90;;;;;;5093576;28;19957;-63
2023/01/23 01:47:23;;;;;;;;;;;2.20;99.90;;;;;;5093617;28;19976;-62
2023/01/23 01:49:50;;;;;;;;;;;2.20;99.90;;;;;;5093556;28;19943;-63
2023/01/23 01:52:16;;;;;;;;;;;2.20;99.90;;;;;;5093284;28;19908;-63
2023/01/23 01:54:46;;;;;;;;;;;2.20;99.90;;;;;;5093319;28;19908;-63
2023/01/23 01:57:16;;;;;;;;;;;2.10;99.90;;;;;;5093335;28;19916;-63
2023/01/23 01:59:44;;;;;;;;;;;2.10;99.90;;;;;;5093484;28;19909;-63
2023/01/23 02:02:13;;;;;;;;;;;2.20;99.90;;;;;;5093013;28;19977;-63
2023/01/23 02:04:41;;;;;;;;;;;2.20;99.90;;;;;;5075137;28;20391;-63
2023/01/23 02:07:10;;;;;;;;;;;2.20;99.90;;;;;;5093107;28;19912;-63
2023/01/23 02:09:36;;;;;;;;;;;2.20;99.90;;;;;;5096388;28;19908;-63
2023/01/23 02:12:01;;;;;;;;;;;2.20;99.90;;;;;;5097075;28;19914;-63
2023/01/23 02:14:27;;;;;;;;;;;2.10;99.90;;;;;;5096743;28;19908;-63
2023/01/23 02:16:58;;;;;;;;;;;2.20;99.90;;;;;;5096695;28;19934;-63
2023/01/23 02:19:30;;;;;;;;;;;2.20;99.90;;;;;;5079668;28;20289;-63
2023/01/23 02:22:01;;;;;;;;;;;2.20;99.90;;;;;;5078384;28;19920;-63
2023/01/23 02:24:34;;;;;;;;;;;2.10;99.90;;;;;;5096838;28;19951;-63
2023/01/23 02:26:59;;;;;;;;;;;2.10;99.90;;;;;;5096780;28;19908;-63
2023/01/23 02:29:25;;;;;;;;;;;2.10;99.90;;;;;;5096438;28;20285;-63
2023/01/23 02:31:52;;;;;;;;;;;2.10;99.90;;;;;;5096409;28;20009;-63
2023/01/23 02:34:17;;;;;;;;;;;2.20;99.90;;;;;;5096372;28;19909;-63
2023/01/23 02:36:47;;;;;;;;;;;2.20;99.90;;;;;;5096558;28;20293;-63
2023/01/23 02:39:13;;;;;;;;;;;2.20;99.90;;;;;;5096342;28;19909;-63
2023/01/23 02:41:41;;;;;;;;;;;2.20;99.90;;;;;;5078062;28;20095;-63
2023/01/23 02:44:26;;;;;;;;;;;2.20;99.90;;;;;;5096450;28;20281;-63
2023/01/23 02:46:52;;;;;;;;;;;2.20;99.90;;;;;;5096410;28;20377;-63
2023/01/23 02:49:19;;;;;;;;;;;2.20;99.90;;;;;;5096353;28;20361;-63
2023/01/23 02:51:44;;;;;;;;;;;2.20;99.90;;;;;;5096270;28;19908;-63
2023/01/23 02:54:09;;;;;;;;;;;2.30;99.90;;;;;;5096013;28;20002;-63
2023/01/23 02:56:35;;;;;;;;;;;2.30;99.90;;;;;;5095923;28;19991;-63
2023/01/23 03:01:46;;;;;;;;;;;2.30;99.90;;;;;;5095397;28;19931;-63
2023/01/23 03:04:12;;;;;;;;;;;2.20;99.90;;;;;;5096064;28;19908;-63
2023/01/23 03:06:37;;;;;;;;;;;2.30;99.90;;;;;;5095762;28;19908;-63
2023/01/23 03:09:06;;;;;;;;;;;2.20;99.90;;;;;;5095666;28;19915;-63
2023/01/23 03:11:32;;;;;;;;;;;2.20;99.90;;;;;;5095891;28;19967;-63
2023/01/23 03:13:57;;;;;;;;;;;2.20;99.90;;;;;;5095704;28;19915;-63
2023/01/23 03:16:23;;;;;;;;;;;2.20;99.90;;;;;;5095849;28;19911;-63
2023/01/23 03:18:48;;;;;;;;;;;2.20;99.90;;;;;;5095484;28;20438;-63
2023/01/23 03:21:14;;;;;;;;;;;2.20;99.90;;;;;;5095631;28;19919;-63
2023/01/23 03:23:40;;;;;;;;;;;2.10;99.90;;;;;;5077339;28;19925;-63
2023/01/23 03:26:06;;;;;;;;;;;2.20;99.90;;;;;;5095405;28;19930;-63
2023/01/23 03:31:16;;;;;;;;;;;2.20;99.90;;;;;;5095095;28;19961;-63
2023/01/23 03:33:43;;;;;;;;;;;2.30;99.90;;;;;;5077180;28;19909;-64
2023/01/23 03:36:09;;;;;;;;;;;2.20;99.90;;;;;;5095425;28;19908;-63
2023/01/23 03:38:35;;;;;;;;;;;2.20;99.90;;;;;;5095140;28;19908;-63
2023/01/23 03:41:32;;;;;;;;;;;2.20;99.90;;;;;;5094963;28;19939;-63
2023/01/23 03:43:46;;;;;;;;;;;2.20;99.90;;;;;;5094877;28;19915;-63
2023/01/23 03:46:11;;;;;;;;;;;2.20;99.90;;;;;;5094972;28;19908;-64
2023/01/23 03:48:37;;;;;;;;;;;2.20;99.90;;;;;;5095202;28;19908;-63
2023/01/23 03:51:02;;;;;;;;;;;2.20;99.90;;;;;;5095148;28;19909;-63
2023/01/23 03:53:28;;;;;;;;;;;2.20;99.90;;;;;;5095107;28;19908;-63
2023/01/23 03:55:53;;;;;;;;;;;2.20;99.90;;;;;;5094827;28;20335;-63
2023/01/23 03:58:19;;;;;;;;;;;2.20;99.90;;;;;;5095018;28;19943;-63
2023/01/23 04:00:44;;;;;;;;;;;2.20;99.90;;;;;;5094607;28;20388;-63
2023/01/23 04:03:10;;;;;;;;;;;2.20;99.90;;;;;;5094913;28;20003;-64
2023/01/23 04:05:35;;;;;;;;;;;2.20;99.90;;;;;;5094628;28;19908;-63
2023/01/23 04:08:01;;;;;;;;;;;2.20;99.90;;;;;;5094554;28;19908;-63
2023/01/23 04:10:26;;;;;;;;;;;2.20;99.90;;;;;;5094749;28;19912;-63
2023/01/23 04:12:52;;;;;;;;;;;2.20;99.90;;;;;;5094504;28;19951;-63
2023/01/23 04:15:17;;;;;;;;;;;2.20;99.90;;;;;;5094692;28;20353;-63
2023/01/23 04:17:43;;;;;;;;;;;2.20;99.90;;;;;;5094390;28;19939;-63
2023/01/23 04:20:09;;;;;;;;;;;2.20;99.90;;;;;;5094302;28;20032;-63
2023/01/23 04:22:35;;;;;;;;;;;2.30;99.90;;;;;;5094297;28;20369;-63
2023/01/23 04:25:00;;;;;;;;;;;2.30;99.90;;;;;;5094502;28;19960;-63
2023/01/23 04:27:25;;;;;;;;;;;2.30;99.90;;;;;;5094529;28;19912;-63
2023/01/23 04:29:51;;;;;;;;;;;2.40;99.90;;;;;;5094223;28;19908;-63
2023/01/23 04:32:16;;;;;;;;;;;2.40;99.90;;;;;;5093723;28;20312;-63
2023/01/23 04:34:42;;;;;;;;;;;2.40;99.90;;;;;;5094122;28;19908;-63
2023/01/23 04:37:07;;;;;;;;;;;2.40;99.90;;;;;;5094085;28;19915;-63
2023/01/23 04:39:33;;;;;;;;;;;2.50;99.90;;;;;;5094029;28;19914;-63
2023/01/23 04:41:58;;;;;;;;;;;2.40;99.90;;;;;;5094134;28;20366;-63
2023/01/23 04:44:25;;;;;;;;;;;2.40;99.90;;;;;;5094210;28;20342;-63
2023/01/23 04:46:52;;;;;;;;;;;2.40;99.90;;;;;;5094191;28;20003;-63
2023/01/23 04:49:18;;;;;;;;;;;2.30;99.90;;;;;;5094155;28;20026;-63
2023/01/23 04:51:44;;;;;;;;;;;2.30;99.90;;;;;;5094128;28;19957;-63
2023/01/23 04:54:10;;;;;;;;;;;2.30;99.90;;;;;;5094128;28;20014;-63
2023/01/23 04:56:36;;;;;;;;;;;2.30;99.90;;;;;;5094066;28;20348;-63
2023/01/23 04:59:01;;;;;;;;;;;2.30;99.90;;;;;;5094059;28;19908;-63
2023/01/23 05:01:27;;;;;;;;;;;2.30;99.90;;;;;;5072038;28;20062;-63
2023/01/23 05:03:52;;;;;;;;;;;2.30;99.90;;;;;;5072115;28;19908;-63
2023/01/23 05:06:18;;;;;;;;;;;2.30;99.90;;;;;;5073501;28;20028;-64
2023/01/23 05:08:44;;;;;;;;;;;2.30;99.90;;;;;;5073681;28;19908;-63
2023/01/23 05:11:09;;;;;;;;;;;2.30;99.90;;;;;;5073644;28;19999;-63
2023/01/23 05:13:34;;;;;;;;;;;2.30;99.90;;;;;;5073390;28;19947;-63
2023/01/23 05:16:00;;;;;;;;;;;2.30;99.90;;;;;;5073401;28;19912;-63
2023/01/23 05:18:26;;;;;;;;;;;2.30;99.90;;;;;;5073389;28;19916;-63
2023/01/23 05:20:51;;;;;;;;;;;2.20;99.90;;;;;;5073551;28;19913;-63
2023/01/23 05:23:16;;;;;;;;;;;2.20;99.90;;;;;;5073654;28;19912;-63
2023/01/23 05:25:43;;;;;;;;;;;2.30;99.90;;;;;;5106244;28;19958;-63
2023/01/23 05:28:09;;;;;;;;;;;2.30;99.90;;;;;;5073347;28;19908;-63
2023/01/23 05:30:34;;;;;;;;;;;2.30;99.90;;;;;;5073256;28;19915;-63
2023/01/23 05:32:59;;;;;;;;;;;2.30;99.90;;;;;;5073187;28;19913;-63
2023/01/23 05:35:25;;;;;;;;;;;2.40;99.90;;;;;;5073231;28;19916;-63
2023/01/23 05:37:51;;;;;;;;;;;2.40;99.90;;;;;;5073215;28;19909;-63
2023/01/23 05:40:17;;;;;;;;;;;2.40;99.90;;;;;;5073413;28;20050;-63
2023/01/23 05:42:43;;;;;;;;;;;2.40;99.90;;;;;;5073146;28;20389;-63
2023/01/23 05:45:08;;;;;;;;;;;2.40;99.90;;;;;;5077267;28;19908;-63
2023/01/23 05:47:34;;;;;;;;;;;2.40;99.90;;;;;;5075744;28;19936;-63
2023/01/23 05:50:00;;;;;;;;;;;2.40;99.90;;;;;;5075717;28;19917;-63
2023/01/23 05:52:25;;;;;;;;;;;2.40;99.90;;;;;;5077170;28;19989;-63
2023/01/23 05:54:51;;;;;;;;;;;2.40;99.90;;;;;;5076842;28;19908;-63
2023/01/23 05:57:16;;;;;;;;;;;2.40;99.90;;;;;;5076837;28;20427;-63
2023/01/23 05:59:42;;;;;;;;;;;2.40;99.90;;;;;;5076738;28;19952;-63
2023/01/23 06:02:07;;;;;;;;;;;2.40;99.90;;;;;;5075279;28;19943;-63
2023/01/23 06:04:33;;;;;;;;;;;2.40;99.90;;;;;;5076720;28;19908;-63
2023/01/23 06:06:58;;;;;;;;;;;2.40;99.90;;;;;;5075389;28;19914;-63
2023/01/23 06:09:23;;;;;;;;;;;2.40;99.90;;;;;;5076477;28;19912;-63
2023/01/23 06:11:49;;;;;;;;;;;2.40;99.90;;;;;;5076499;28;19909;-63
2023/01/23 06:14:14;;;;;;;;;;;2.40;99.90;;;;;;5076344;28;19916;-63
2023/01/23 06:16:40;;;;;;;;;;;2.40;99.90;;;;;;5075136;28;19909;-64
2023/01/23 06:19:05;;;;;;;;;;;2.40;99.90;;;;;;5076373;28;20003;-63
2023/01/23 06:21:31;;;;;;;;;;;2.40;99.90;;;;;;5109182;28;20301;-63
2023/01/23 06:23:58;;;;;;;;;;;2.40;99.90;;;;;;5076504;28;19919;-63
2023/01/23 06:26:24;;;;;;;;;;;2.40;99.90;;;;;;5076279;28;19995;-62
2023/01/23 06:28:49;;;;;;;;;;;2.40;99.90;;;;;;5076064;28;19916;-63
2023/01/23 06:31:15;;;;;;;;;;;2.50;99.90;;;;;;5108885;28;19915;-63
2023/01/23 06:33:40;;;;;;;;;;;2.40;99.90;;;;;;5076039;28;19909;-63
2023/01/23 06:36:06;;;;;;;;;;;2.40;99.90;;;;;;5075992;28;19934;-63
2023/01/23 06:38:31;;;;;;;;;;;2.40;99.90;;;;;;5076069;28;19909;-63
2023/01/23 06:40:57;;;;;;;;;;;2.40;99.90;;;;;;5075959;28;19916;-63
2023/01/23 06:43:23;;;;;;;;;;;2.40;99.90;;;;;;5075700;28;19912;-63
2023/01/23 06:45:49;;;;;;;;;;;2.40;99.90;;;;;;5075832;28;19955;-63
2023/01/23 06:48:14;;;;;;;;;;;2.40;99.90;;;;;;5076089;28;19948;-64
2023/01/23 06:50:41;;;;;;;;;;;2.40;99.90;;;;;;5075663;28;20338;-63
2023/01/23 06:53:06;;;;;;;;;;;2.40;99.90;;;;;;5075587;28;19925;-63
2023/01/23 06:55:32;;;;;;;;;;;2.40;99.90;;;;;;5075014;28;19909;-63
2023/01/23 06:57:58;;;;;;;;;;;2.40;99.90;;;;;;5075529;28;19915;-63
2023/01/23 07:00:24;;;;;;;;;;;2.40;99.90;;;;;;5077319;28;20002;-64
2023/01/23 07:02:49;;;;;;;;;;;2.40;99.90;;;;;;5095598;28;19912;-63
2023/01/23 07:05:15;;;;;;;;;;;2.40;99.90;;;;;;5095644;28;19908;-63
2023/01/23 07:07:40;;;;;;;;;;;2.50;99.90;;;;;;5095633;28;19957;-63
2023/01/23 07:10:06;;;;;;;;;;;2.40;99.90;;;;;;5095520;28;20356;-63
2023/01/23 07:12:32;;;;;;;;;;;2.40;99.90;;;;;;5095478;28;19909;-63
2023/01/23 07:14:57;;;;;;;;;;;2.40;99.90;;;;;;5095772;28;19908;-63
2023/01/23 07:17:23;;;;;;;;;;;2.40;99.90;;;;;;5095724;28;19991;-63
2023/01/23 07:19:49;;;;;;;;;;;2.40;99.90;;;;;;5095405;28;20366;-63
2023/01/23 07:22:16;;;;;;;;;;;2.40;99.90;;;;;;5095319;28;20285;-64
2023/01/23 07:24:42;;;;;;;;;;;2.40;99.90;;;;;;5095680;28;20037;-63
2023/01/23 07:27:07;;;;;;;;;;;2.40;99.90;;;;;;5095238;28;19961;-63
2023/01/23 07:29:33;;;;;;;;;;;2.40;99.90;;;;;;5095619;28;19908;-63
2023/01/23 07:31:59;;;;;;;;;;;2.40;99.90;;;;;;5094737;28;19908;-63
2023/01/23 07:34:25;;;;;;;;;;;2.40;99.90;;;;;;5076214;28;20001;-63
2023/01/23 07:36:50;;;;;;;;;;;2.40;99.90;;;;;;5094750;28;19947;-63
2023/01/23 07:39:16;;;;;;;;;;;2.40;99.90;;;;;;5095229;28;19912;-63
2023/01/23 07:41:41;;;;;;;;;;;2.40;99.90;;;;;;5094955;28;19912;-63
2023/01/23 07:44:07;;;;;;;;;;;2.40;99.90;;;;;;5076827;28;19908;-63
2023/01/23 07:46:32;;;;;;;;;;;2.40;99.90;;;;;;5094596;28;20289;-63
2023/01/23 07:48:58;;;;;;;;;;;2.40;99.90;;;;;;5070232;28;19912;-63
2023/01/23 07:51:23;;;;;;;;;;;2.50;99.90;;;;;;5093925;28;19908;-63
2023/01/23 07:53:49;;;;;;;;;;;2.50;99.90;;;;;;5091976;28;19957;-63
2023/01/23 07:56:14;;;;;;;;;;;2.50;99.90;;;;;;5093144;28;19965;-64
2023/01/23 07:58:40;;;;;;;;;;;2.50;99.90;;;;;;5094310;28;19912;-63
2023/01/23 08:01:06;;;;;;;;;;;2.50;99.90;;;;;;5093027;28;19924;-64
2023/01/23 08:03:31;;;;;;;;;;;2.50;99.90;;;;;;5093970;28;19962;-65
2023/01/23 08:05:58;;;;;;;;;;;2.50;99.90;;;;;;5092859;28;19955;-64
2023/01/23 08:08:24;;;;;;;;;;;2.60;99.90;;;;;;5092594;28;19962;-63
2023/01/23 08:10:49;;;;;;;;;;;2.60;99.90;;;;;;5070120;28;20369;-65
2023/01/23 08:13:14;;;;;;;;;;;2.60;99.90;;;;;;5088109;28;19912;-63
2023/01/23 08:15:40;;;;;;;;;;;2.60;99.90;;;;;;5092199;28;19912;-63
2023/01/23 08:18:05;;;;;;;;;;;2.60;99.90;;;;;;5073679;28;19958;-63
2023/01/23 08:20:31;;;;;;;;;;;2.60;99.90;;;;;;5089743;28;19983;-63
2023/01/23 08:22:57;;;;;;;;;;;2.60;99.90;;;;;;5092320;28;19916;-63
2023/01/23 08:25:23;;;;;;;;;;;2.60;99.90;;;;;;5092343;28;20301;-63
2023/01/23 08:27:48;;;;;;;;;;;2.60;99.90;;;;;;5092754;28;19923;-64
2023/01/23 08:30:14;;;;;;;;;;;2.50;99.90;;;;;;5072103;28;20350;-64
2023/01/23 08:32:39;;;;;;;;;;;2.60;99.90;;;;;;5092912;28;19973;-63
2023/01/23 08:35:05;;;;;;;;;;;2.60;99.90;;;;;;5092786;28;19912;-63
2023/01/23 08:37:32;;;;;;;;;;;2.60;99.90;;;;;;5083502;28;19916;-65
2023/01/23 08:39:57;;;;;;;;;;;2.70;99.90;;;;;;5089634;28;20029;-64
2023/01/23 08:42:23;;;;;;;;;;;2.70;99.90;;;;;;5077512;28;19916;-66
2023/01/23 08:44:48;;;;;;;;;;;2.70;99.90;;;;;;5085432;28;19919;-65
2023/01/23 08:47:14;;;;;;;;;;;2.70;99.90;;;;;;5093450;28;19916;-64
2023/01/23 08:49:39;;;;;;;;;;;2.80;99.90;;;;;;5085144;28;20393;-64
2023/01/23 08:52:05;;;;;;;;;;;2.80;99.90;;;;;;5089142;28;20966;-64
2023/01/23 08:54:31;;;;;;;;;;;2.80;99.90;;;;;;5082166;28;19912;-64
2023/01/23 08:56:56;;;;;;;;;;;2.90;99.90;;;;;;5092999;28;19938;-64
2023/01/23 08:59:22;;;;;;;;;;;2.90;99.90;;;;;;5092111;28;19912;-64
2023/01/23 09:01:47;;;;;;;;;;;2.90;99.90;;;;;;5068020;28;19920;-68
2023/01/23 09:04:13;;;;;;;;;;;3.00;99.90;;;;;;5072641;28;19912;-64
2023/01/23 09:06:38;;;;;;;;;;;3.10;99.90;;;;;;5072098;28;19958;-64
2023/01/23 09:09:04;;;;;;;;;;;3.10;99.90;;;;;;5065913;28;20371;-64
2023/01/23 09:11:29;;;;;;;;;;;3.10;99.90;;;;;;5067762;28;19913;-65
2023/01/23 09:13:55;;;;;;;;;;;3.10;99.90;;;;;;5066817;28;19913;-65
2023/01/23 09:16:21;;;;;;;;;;;3.00;99.90;;;;;;5071342;28;19912;-65
2023/01/23 09:18:46;;;;;;;;;;;3.00;99.90;;;;;;5072506;28;19970;-66
2023/01/23 09:21:14;;;;;;;;;;;3.00;99.90;;;;;;5061995;28;20409;-64
2023/01/23 09:23:40;;;;;;;;;;;3.00;99.90;;;;;;5074058;28;19999;-64
2023/01/23 09:26:06;;;;;;;;;;;3.00;99.90;;;;;;5078347;28;20007;-64
2023/01/23 09:28:31;;;;;;;;;;;3.00;99.90;;;;;;5075904;28;19965;-63
2023/01/23 09:31:01;;;;;;;;;;;3.10;99.90;;;;;;5075111;28;20343;-63
2023/01/23 09:33:26;;;;;;;;;;;3.10;99.90;;;;;;5061057;28;19920;-63
2023/01/23 09:35:52;;;;;;;;;;;3.20;99.90;;;;;;5075393;28;19912;-64
2023/01/23 09:38:17;;;;;;;;;;;3.20;99.90;;;;;;5076726;28;19913;-64
2023/01/23 09:40:52;;;;;;;;;;;3.20;99.90;;;;;;5075642;28;20029;-63
2023/01/23 09:43:22;;;;;;;;;;;3.20;99.90;;;;;;5076681;28;19916;-63
2023/01/23 09:45:56;;;;;;;;;;;3.20;99.90;;;;;;5075188;28;19922;-65
2023/01/23 09:48:28;;;;;;;;;;;3.40;99.90;;;;;;5108987;28;19958;-64
2023/01/23 09:50:57;;;;;;;;;;;3.50;99.90;;;;;;5070125;28;19919;-67
2023/01/23 09:53:25;;;;;;;;;;;3.50;99.90;;;;;;5071081;28;20045;-64
2023/01/23 09:56:00;;;;;;;;;;;3.50;99.90;;;;;;5076150;28;19912;-63
2023/01/23 09:58:33;;;;;;;;;;;3.50;99.90;;;;;;5066652;28;19919;-63
2023/01/23 10:00:59;;;;;;;;;;;3.60;99.90;;;;;;5083646;28;20393;-62
2023/01/23 10:03:27;;;;;;;;;;;3.50;99.90;;;;;;5095495;28;19954;-63
2023/01/23 10:06:06;;;;;;;;;;;3.50;99.90;;;;;;5096440;28;19908;-61
2023/01/23 10:08:38;;;;;;;;;;;3.60;99.90;;;;;;5086191;28;19951;-61
2023/01/23 10:11:10;;;;;;;;;;;3.60;99.90;;;;;;5096344;28;20373;-62
2023/01/23 10:13:41;;;;;;;;;;;3.60;99.90;;;;;;5095350;28;19912;-67
2023/01/23 10:21:29;;;;;;;34.40;17.08;;;3.60;99.90;;;;;;5110655;27;20330;-62
2023/01/23 10:24:14;;;;;;;31.50;16.85;;;3.60;99.90;;;;;;5091261;28;20040;-62
2023/01/23 10:26:43;;;;;;;31.48;16.83;;;3.60;99.90;;;;;;5089834;28;20028;-62
2023/01/23 10:29:29;;;;;;;34.15;17.00;;;3.50;99.90;;;;;;5098499;28;20020;-63
2023/01/23 10:31:57;;;;;;;32.80;18.10;;;3.40;99.90;;;;;;5104339;28;20032;-63
2023/01/23 10:34:33;;;;;;;33.90;16.63;;;3.40;99.90;;;;;;5105826;28;20032;-63
2023/01/23 10:37:23;;;;;;;36.33;18.58;;;3.40;99.90;;;;;;5090449;28;20086;-62
2023/01/23 10:39:58;;;;;;;30.95;17.52;;;3.40;99.90;;;;;;5101571;28;20032;-63
2023/01/23 10:42:26;;;;;;;30.52;17.23;;;3.50;99.90;;;;;;5087363;28;20025;-63
2023/01/23 10:44:52;;;;;;;33.40;18.10;;;3.50;99.90;;;;;;5097658;28;20371;-63
2023/01/23 10:47:43;;;;;;;33.45;18.05;;;3.50;99.90;;;;;;5091247;28;20449;-63
2023/01/23 10:50:10;;;;;;;34.10;17.48;;;3.50;99.90;;;;;;5093903;28;20508;-63
2023/01/23 10:52:44;;;;;;;37.38;18.60;;;3.50;99.90;;;;;;5109728;28;20063;-63
2023/01/23 10:57:57;;;;;;;34.25;18.63;;;3.60;99.90;;;;;;5089091;27;20414;-63
2023/01/23 11:00:34;;;;;;;33.55;18.38;;;3.50;99.90;;;;;;5104185;28;20517;-63
2023/01/23 11:03:22;;;;;;;34.00;18.42;;;3.50;99.90;;;;;;5090106;28;20034;-63
2023/01/23 11:06:04;;;;;;;33.90;17.83;;;3.50;99.90;;;;;;5069950;28;20028;-63
2023/01/23 11:08:35;;;;;;;30.88;17.85;;;3.60;99.90;;;;;;5087132;28;20056;-63
2023/01/23 11:14:20;;;;;;;31.63;17.33;;;3.70;99.90;;;;;;5110508;27;20893;-63
2023/01/23 11:17:00;;;;;;;32.05;17.73;;;3.70;99.90;;;;;;5104688;28;20024;-62
2023/01/23 11:19:28;;;;;;;34.63;18.55;;;3.60;99.90;;;;;;5092702;28;20046;-65
2023/01/23 11:21:58;;;;;;;35.30;18.63;;;3.60;99.90;;;;;;5107981;28;20031;-64
2023/01/23 11:27:25;;;;;;;38.88;20.15;;;3.70;99.90;;;;;;5109425;27;20905;-63
2023/01/23 11:30:17;;;;;;;34.92;18.55;;;3.80;99.90;;;;;;5106528;28;20059;-60
2023/01/23 11:32:53;;;;;;;34.10;18.20;;;3.70;99.90;;;;;;5110359;28;20077;-60
2023/01/23 11:35:26;;;;;;;33.72;18.75;;;3.60;99.90;;;;;;5105620;28;20073;-61
2023/01/23 11:37:54;;;;;;;41.28;20.08;;;3.60;99.90;;;;;;5107432;28;20046;-60
2023/01/23 11:40:20;;;;;;;36.70;19.00;;;3.70;99.90;;;;;;5094156;28;20031;-60
2023/01/23 11:42:46;;;;;;;34.42;18.52;;;3.80;99.90;;;;;;5088831;28;20020;-60
2023/01/23 11:45:37;;;;;;;35.75;18.67;;;3.80;99.90;;;;;;5093032;28;20028;-60
2023/01/23 11:48:43;;;;;;;36.10;20.20;;;3.80;99.90;;;;;;5101645;28;20043;-60
2023/01/23 11:51:35;;;;;;;35.15;17.77;;;3.80;99.90;;;;;;5102331;28;20155;-60
2023/01/23 11:57:06;;;;;;;33.30;18.30;;;3.90;99.90;;;;;;5082191;28;20781;-60
2023/01/23 11:59:52;;;;;;;34.28;18.08;;;3.90;99.90;;;;;;5078660;28;20051;-63
2023/01/23 12:02:29;;;;;;;35.78;18.20;;;3.80;99.90;;;;;;5069305;28;20168;-64
2023/01/23 12:08:18;;;;;;;33.95;18.70;;;3.70;99.90;;;;;;5061225;28;20409;-63
2023/01/23 12:16:46;;;;;;;37.80;18.83;;;3.80;99.90;;;;;;5108798;27;20404;-63
2023/01/23 12:19:40;;;;;;;34.10;18.83;;;3.90;99.90;;;;;;5106623;28;20031;-63
2023/01/23 12:22:20;;;;;;;35.78;19.48;;;3.80;99.90;;;;;;5101491;28;20455;-63
2023/01/23 12:25:03;;;;;;;30.58;17.77;;;3.80;99.90;;;;;;5110851;28;20020;-63
2023/01/23 12:27:44;;;;;;;35.88;19.85;;;3.90;99.90;;;;;;5105425;28;20028;-63
2023/01/23 12:30:28;;;;;;;33.80;17.85;;;3.80;99.90;;;;;;5092446;28;20032;-63
2023/01/23 12:36:09;;;;;;;32.75;18.52;;;3.80;99.90;;;;;;5109345;27;20404;-63
2023/01/23 12:38:53;;;;;;;34.70;17.90;;;3.70;99.90;;;;;;5095353;28;20024;-64
2023/01/23 12:41:41;;;;;;;30.83;17.10;;;3.80;99.90;;;;;;5094014;28;20402;-64
2023/01/23 12:44:32;;;;;;;33.45;17.23;;;3.80;99.90;;;;;;5089806;28;20025;-64
2023/01/23 12:47:10;;;;;;;36.33;19.48;;;3.80;99.90;;;;;;5088398;28;20122;-64
2023/01/23 12:49:48;;;;;;;34.33;18.45;;;3.80;99.90;;;;;;5099327;28;20020;-64
2023/01/23 12:52:23;;;;;;;31.70;18.77;;;3.80;99.90;;;;;;5087772;28;20032;-64
2023/01/23 12:55:00;;;;;;;33.60;18.65;;;3.80;99.90;;;;;;5090861;28;20473;-64
2023/01/23 12:57:50;;;;;;;33.25;18.00;;;3.90;99.90;;;;;;5086235;28;20054;-64
2023/01/23 13:00:35;;;;;;;34.47;16.58;;;4.00;99.90;;;;;;5078197;28;20091;-66
2023/01/23 13:03:11;;;;;;;30.55;17.08;;;3.90;99.90;;;;;;5088856;28;20465;-64
2023/01/23 13:06:06;;;;;;;33.03;18.63;;;3.80;99.90;;;;;;5088210;28;20036;-66
2023/01/23 13:08:42;;;;;;;30.55;17.08;;;3.80;99.90;;;;;;5088118;28;20079;-66
2023/01/23 13:11:48;;;;;;;31.70;16.98;;;3.80;99.90;;;;;;5088443;28;20123;-66
2023/01/23 13:14:16;;;;;;;30.35;16.48;;;3.90;99.90;;;;;;5088955;28;20029;-65
2023/01/23 13:16:47;;;;;;;31.58;18.55;;;3.90;99.90;;;;;;5088596;28;20017;-66
2023/01/23 13:22:33;;;;;;;35.05;17.88;;;3.90;99.90;;;;;;5078052;28;20135;-67
2023/01/23 13:25:11;;;;;;;33.63;17.63;;;4.00;99.90;;;;;;5083020;28;20025;-66
2023/01/23 13:27:58;;;;;;;34.45;18.42;;;4.00;99.90;;;;;;5078019;28;20406;-66
2023/01/23 13:33:40;;;;;;;30.92;17.50;;;4.00;99.90;;;;;;5077521;28;20184;-64
2023/01/23 13:36:35;;;;;;;33.25;18.40;;;4.10;99.90;;;;;;5052596;28;20103;-64
2023/01/23 13:39:19;;;;;;;37.35;18.08;;;4.00;99.90;;;;;;5031976;28;20029;-66
2023/01/23 13:41:48;;;;;;;36.13;19.30;;;4.00;99.90;;;;;;5068657;28;20021;-65
2023/01/23 13:44:30;;;;;;;36.17;19.05;;;4.10;99.90;;;;;;5063324;28;20044;-67
2023/01/23 13:49:50;;;;;;;36.53;18.63;;;4.20;99.90;;;;;;5090976;28;20925;-65
2023/01/23 13:58:16;;;;;;;41.20;20.05;;;4.20;99.90;;;;;;5078577;28;20055;-66
2023/01/23 14:05:11;;;;;;;38.95;20.58;;;4.20;99.90;;;;;;5069627;28;20099;-67
2023/01/23 14:06:31;;;;;;;44.60;21.45;;;4.30;99.90;;;;;;5078704;28;20486;-66
2023/01/23 14:08:57;;;;;;;39.22;20.23;;;4.20;99.90;;;;;;5072697;28;20505;-67
2023/01/23 14:11:22;;;;;;;41.08;21.02;;;4.10;99.90;;;;;;5069866;28;20033;-66
2023/01/23 14:16:08;;;;;;;38.40;20.52;;;4.00;99.90;;;;;;5068706;28;20096;-66
2023/01/23 14:16:42;;;;;;;40.33;21.30;;;4.00;99.90;;;;;;5052697;28;20049;-67
2023/01/23 14:19:29;;;;;;;35.47;20.63;;;4.10;99.90;;;;;;5064212;28;20386;-66
2023/01/23 14:21:57;;;;;;;40.25;20.35;;;4.10;99.90;;;;;;5066252;28;20479;-67
2023/01/23 14:24:42;;;;;;;41.58;21.77;;;4.10;99.90;;;;;;5068348;28;20093;-65
2023/01/23 14:27:17;;;;;;;40.33;22.45;;;4.00;99.90;;;;;;5067169;28;20112;-66
2023/01/23 14:29:56;;;;;;;40.63;21.73;;;4.00;99.90;;;;;;5066061;28;20021;-65
2023/01/23 14:32:22;;;;;;;39.60;21.80;;;4.10;99.90;;;;;;5065115;28;20032;-66
2023/01/23 14:34:48;;;;;;;39.75;20.52;;;4.00;99.90;;;;;;5066745;28;20017;-66
2023/01/23 14:37:14;;;;;;;39.40;21.65;;;4.00;99.90;;;;;;5066547;28;20028;-69
2023/01/23 14:39:46;;;;;;;36.10;19.92;;;3.90;99.90;;;;;;5066372;28;20024;-65
2023/01/23 14:42:26;;;;;;;38.90;20.35;;;3.90;99.90;;;;;;5058563;28;20474;-66
2023/01/23 14:44:54;;;;;;;37.08;20.02;;;4.00;99.90;;;;;;5076764;28;20390;-66
2023/01/23 14:47:42;;;;;;;38.13;19.65;;;4.00;99.90;;;;;;5066754;28;20574;-66
2023/01/23 14:50:14;;;;;;;39.53;19.63;;;4.00;99.90;;;;;;5061668;28;20025;-66
2023/01/23 14:52:39;;;;;;;34.22;18.23;;;4.00;99.90;;;;;;5066975;28;20035;-65
2023/01/23 14:55:21;;;;;;;35.60;19.55;;;3.90;99.90;;;;;;5065941;28;20387;-62
2023/01/23 14:57:50;;;;;;;33.40;19.80;;;3.90;99.90;;;;;;5064582;28;20043;-65
2023/01/23 15:00:18;;;;;;;38.08;20.00;;;3.90;99.90;;;;;;5053302;28;20029;-66